createdAt,value
2019-03-03T00:01:43.998Z,98.93
2019-03-03T00:04:13.506Z,103.80
2019-03-03T00:06:42.964Z,98.17
2019-03-03T00:09:12.290Z,100.60
2019-03-03T00:11:41.732Z,94.40
2019-03-03T00:14:11.146Z,99.03
2019-03-03T00:16:40.773Z,96.03
2019-03-03T00:19:10.239Z,96.17
2019-03-03T00:21:39.681Z,98.57
2019-03-03T00:24:09.124Z,95.27
2019-03-03T00:26:38.592Z,95.27
2019-03-03T00:29:08.158Z,94.97
2019-03-03T00:31:39.600Z,90.40
2019-03-03T00:34:08.955Z,93.20
2019-03-03T00:37:12.868Z,94.40
2019-03-03T00:40:03.987Z,89.43
2019-03-03T00:42:44.072Z,92.40
2019-03-03T00:45:31.642Z,93.20
2019-03-03T00:48:18.999Z,93.63
2019-03-03T00:50:55.724Z,88.13
2019-03-03T00:53:47.326Z,89.07
2019-03-03T00:56:41.636Z,90.70
2019-03-03T00:59:32.367Z,87.47
2019-03-03T01:02:26.968Z,86.53
2019-03-03T01:05:02.150Z,87.40
2019-03-03T01:07:49.382Z,88.13
2019-03-03T01:10:35.251Z,89.07
2019-03-03T01:13:21.697Z,89.47
2019-03-03T01:15:59.084Z,88.23
2019-03-03T01:18:50.695Z,90.03
2019-03-03T01:21:32.180Z,90.90
2019-03-03T01:24:23.560Z,91.27
2019-03-03T01:26:52.979Z,90.00
2019-03-03T01:29:22.315Z,91.43
2019-03-03T01:31:51.699Z,92.97
2019-03-03T01:34:21.105Z,90.40
2019-03-03T01:36:50.404Z,94.90
2019-03-03T01:39:38.811Z,99.67
2019-03-03T01:42:08.211Z,110.03
2019-03-03T01:44:37.565Z,106.30
2019-03-03T01:47:07.200Z,105.97
2019-03-03T01:49:36.660Z,103.27
2019-03-03T01:52:06.081Z,102.03
2019-03-03T01:54:35.443Z,101.37
2019-03-03T01:57:04.859Z,104.40
2019-03-03T01:59:34.494Z,105.00
2019-03-03T02:02:03.834Z,104.00
2019-03-03T02:04:33.175Z,103.83
2019-03-03T02:07:02.396Z,103.43
2019-03-03T02:09:32.099Z,92.77
2019-03-03T02:12:01.399Z,95.97
2019-03-03T02:14:30.746Z,99.27
2019-03-03T02:17:00.631Z,95.30
2019-03-03T02:19:30.024Z,95.07
2019-03-03T02:21:59.425Z,93.20
2019-03-03T02:24:28.770Z,92.80
2019-03-03T02:26:58.074Z,94.00
2019-03-03T02:29:27.415Z,92.27
2019-03-03T02:31:56.778Z,93.10
2019-03-03T02:34:25.987Z,91.10
2019-03-03T02:36:55.415Z,93.73
2019-03-03T02:39:24.944Z,92.97
2019-03-03T02:41:54.566Z,96.33
2019-03-03T02:44:23.911Z,90.83
2019-03-03T02:46:53.448Z,92.80
2019-03-03T02:49:22.780Z,94.33
2019-03-03T02:51:52.164Z,90.70
2019-03-03T02:54:21.605Z,88.33
2019-03-03T02:56:51.107Z,89.93
2019-03-03T02:59:20.708Z,86.23
2019-03-03T03:01:54.567Z,84.00
2019-03-03T03:04:23.928Z,86.43
2019-03-03T03:07:10.898Z,87.00
2019-03-03T03:10:14.656Z,87.43
2019-03-03T03:12:58.399Z,88.33
2019-03-03T03:15:49.900Z,86.87
2019-03-03T03:18:38.179Z,85.17
2019-03-03T03:21:21.421Z,84.17
2019-03-03T03:24:10.142Z,87.87
2019-03-03T03:27:07.212Z,87.80
2019-03-03T03:29:43.915Z,85.57
2019-03-03T03:32:25.259Z,91.33
2019-03-03T03:35:06.281Z,88.10
2019-03-03T03:37:57.434Z,90.80
2019-03-03T03:40:48.519Z,87.93
2019-03-03T03:43:45.814Z,90.10
2019-03-03T03:46:24.239Z,87.23
2019-03-03T03:49:00.716Z,88.67
2019-03-03T03:52:01.390Z,91.00
2019-03-03T03:54:55.794Z,88.37
2019-03-03T03:57:39.979Z,90.80
2019-03-03T04:00:17.639Z,91.30
2019-03-03T04:02:59.288Z,96.87
2019-03-03T04:05:46.376Z,99.20
2019-03-03T04:08:33.637Z,94.57
2019-03-03T04:11:24.801Z,94.07
2019-03-03T04:14:13.234Z,93.07
2019-03-03T04:16:52.319Z,91.83
2019-03-03T04:19:58.774Z,91.90
2019-03-03T04:22:46.302Z,87.17
2019-03-03T04:25:31.873Z,88.80
2019-03-03T04:28:35.685Z,86.47
2019-03-03T04:31:35.887Z,78.33
2019-03-03T04:34:23.245Z,78.90
2019-03-03T04:37:14.422Z,79.30
2019-03-03T04:39:48.843Z,75.63
2019-03-03T04:42:46.347Z,73.00
2019-03-03T04:45:21.020Z,72.33
2019-03-03T04:48:06.618Z,72.40
2019-03-03T04:50:44.583Z,69.00
2019-03-03T04:53:45.155Z,73.47
2019-03-03T04:56:39.448Z,70.60
2019-03-03T04:59:27.711Z,68.73
2019-03-03T05:02:22.210Z,68.50
2019-03-03T05:05:19.605Z,69.13
2019-03-03T05:08:12.242Z,73.53
2019-03-03T05:11:07.166Z,73.23
2019-03-03T05:13:42.559Z,73.67
2019-03-03T05:16:29.615Z,74.13
2019-03-03T05:19:09.137Z,74.97
2019-03-03T05:21:38.430Z,74.57
2019-03-03T05:24:10.050Z,78.53
2019-03-03T05:26:39.581Z,79.57
2019-03-03T05:29:08.952Z,81.80
2019-03-03T05:31:38.223Z,81.33
2019-03-03T05:34:07.624Z,78.07
2019-03-03T05:36:36.896Z,79.40
2019-03-03T05:39:07.356Z,78.50
2019-03-03T05:41:36.687Z,73.53
2019-03-03T05:44:06.045Z,74.83
2019-03-03T05:46:35.485Z,78.70
2019-03-03T05:49:04.878Z,78.40
2019-03-03T05:51:34.136Z,84.70
2019-03-03T05:54:03.487Z,85.03
2019-03-03T05:56:32.834Z,85.97
2019-03-03T05:59:02.216Z,87.40
2019-03-03T06:01:31.609Z,86.83
2019-03-03T06:04:00.993Z,92.70
2019-03-03T06:06:30.338Z,90.30
2019-03-03T06:08:59.697Z,83.70
2019-03-03T06:11:28.958Z,84.97
2019-03-03T06:13:58.495Z,82.77
2019-03-03T06:16:27.978Z,80.77
2019-03-03T06:18:57.371Z,77.03
2019-03-03T06:21:26.689Z,76.60
2019-03-03T06:23:56.163Z,76.43
2019-03-03T06:26:25.584Z,80.93
2019-03-03T06:28:55.119Z,79.97
2019-03-03T06:31:24.613Z,79.33
2019-03-03T06:33:54.159Z,76.13
2019-03-03T06:36:23.583Z,76.47
2019-03-03T06:38:52.902Z,73.73
2019-03-03T06:41:22.291Z,73.13
2019-03-03T06:43:51.799Z,74.77
2019-03-03T06:46:21.140Z,82.30
2019-03-03T06:48:50.556Z,80.50
2019-03-03T06:51:19.881Z,77.77
2019-03-03T06:53:49.261Z,76.40
2019-03-03T06:56:18.543Z,75.93
2019-03-03T06:58:47.770Z,78.40
2019-03-03T07:01:17.282Z,83.10
2019-03-03T07:03:46.593Z,78.90
2019-03-03T07:06:16.311Z,79.07
2019-03-03T07:08:45.711Z,77.47
2019-03-03T07:11:15.087Z,73.20
2019-03-03T07:13:44.584Z,67.70
2019-03-03T07:16:13.901Z,60.27
2019-03-03T07:18:43.265Z,56.97
2019-03-03T07:21:12.622Z,53.67
2019-03-03T07:23:42.001Z,49.27
2019-03-03T07:26:11.878Z,47.97
2019-03-03T07:28:41.118Z,48.93
2019-03-03T07:31:10.680Z,50.30
2019-03-03T07:33:46.150Z,50.97
2019-03-03T07:36:15.475Z,51.47
2019-03-03T07:38:44.779Z,52.90
2019-03-03T07:41:14.240Z,52.20
2019-03-03T07:43:43.623Z,47.77
2019-03-03T07:46:13.084Z,46.00
2019-03-03T07:48:42.715Z,44.73
2019-03-03T07:51:12.338Z,44.30
2019-03-03T07:53:41.708Z,43.07
2019-03-03T07:56:11.203Z,44.30
2019-03-03T07:58:40.757Z,45.90
2019-03-03T08:01:10.180Z,46.93
2019-03-03T08:03:39.519Z,48.10
2019-03-03T08:06:09.086Z,46.77
2019-03-03T08:08:38.531Z,47.70
2019-03-03T08:11:07.943Z,47.40
2019-03-03T08:13:37.211Z,49.73
2019-03-03T08:16:06.737Z,49.20
2019-03-03T08:18:36.073Z,51.47
2019-03-03T08:21:05.418Z,48.40
2019-03-03T08:23:34.893Z,51.23
2019-03-03T08:26:04.199Z,55.17
2019-03-03T08:28:33.903Z,54.50
2019-03-03T08:31:03.313Z,49.57
2019-03-03T08:33:32.656Z,48.43
2019-03-03T08:36:01.982Z,47.67
2019-03-03T08:38:31.256Z,46.53
2019-03-03T08:41:00.591Z,45.90
2019-03-03T08:43:55.089Z,43.67
2019-03-03T08:46:36.029Z,42.60
2019-03-03T08:49:16.365Z,43.23
2019-03-03T08:52:20.128Z,40.83
2019-03-03T08:55:23.722Z,39.43
2019-03-03T08:58:16.740Z,36.23
2019-03-03T09:01:13.483Z,33.80
2019-03-03T09:04:04.868Z,34.47
2019-03-03T09:06:49.562Z,32.17
2019-03-03T09:09:37.831Z,32.53
2019-03-03T09:12:44.661Z,31.43
2019-03-03T09:15:26.970Z,34.00
2019-03-03T09:18:06.752Z,30.87
2019-03-03T09:20:54.258Z,30.43
2019-03-03T09:23:41.519Z,31.53
2019-03-03T09:26:27.958Z,30.73
2019-03-03T09:29:04.635Z,31.27
2019-03-03T09:31:58.796Z,30.17
2019-03-03T09:34:50.041Z,31.10
2019-03-03T09:37:35.106Z,32.93
2019-03-03T09:40:27.347Z,20.77
2019-03-03T09:43:07.597Z,20.83
2019-03-03T09:45:56.182Z,20.20
2019-03-03T09:48:36.746Z,20.97
2019-03-03T09:51:28.466Z,20.43
2019-03-03T09:54:35.447Z,20.13
2019-03-03T09:57:17.966Z,19.73
2019-03-03T10:00:15.599Z,20.47
2019-03-03T10:03:03.897Z,20.43
2019-03-03T10:05:55.139Z,19.20
2019-03-03T10:08:40.001Z,20.80
2019-03-03T10:11:46.630Z,19.43
2019-03-03T10:14:36.894Z,18.67
2019-03-03T10:17:34.198Z,18.60
2019-03-03T10:20:12.956Z,18.13
2019-03-03T10:23:16.694Z,18.87
2019-03-03T10:26:08.401Z,19.13
2019-03-03T10:29:02.653Z,18.27
2019-03-03T10:31:50.113Z,17.97
2019-03-03T10:34:38.546Z,19.17
2019-03-03T10:37:14.589Z,18.77
2019-03-03T10:39:49.527Z,18.33
2019-03-03T10:42:43.914Z,16.67
2019-03-03T10:45:30.966Z,18.40
2019-03-03T10:48:09.356Z,17.77
2019-03-03T10:50:53.356Z,17.77
2019-03-03T10:53:40.338Z,18.60
2019-03-03T10:56:25.310Z,17.53
2019-03-03T10:59:12.804Z,18.47
2019-03-03T11:02:00.345Z,18.03
2019-03-03T11:05:07.186Z,18.60
2019-03-03T11:07:54.486Z,18.07
2019-03-03T11:10:45.661Z,16.13
2019-03-03T11:13:49.404Z,15.87
2019-03-03T11:16:31.871Z,16.33
2019-03-03T11:19:28.436Z,12.83
2019-03-03T11:22:16.721Z,13.53
2019-03-03T11:24:56.823Z,14.10
2019-03-03T11:27:45.153Z,12.43
2019-03-03T11:30:33.870Z,13.43
2019-03-03T11:33:22.409Z,14.13
2019-03-03T11:36:10.861Z,12.97
2019-03-03T11:38:48.956Z,13.10
2019-03-03T11:41:23.352Z,14.10
2019-03-03T11:44:12.204Z,13.50
2019-03-03T11:46:49.200Z,13.30
2019-03-03T11:49:36.226Z,13.20
2019-03-03T11:52:34.257Z,13.53
2019-03-03T11:55:11.681Z,15.90
2019-03-03T11:57:50.419Z,14.77
2019-03-03T12:00:44.936Z,14.10
2019-03-03T12:03:32.075Z,12.90
2019-03-03T12:06:19.285Z,13.17
2019-03-03T12:09:08.262Z,13.83
2019-03-03T12:12:11.921Z,12.63
2019-03-03T12:14:51.224Z,11.60
2019-03-03T12:17:26.973Z,12.10
2019-03-03T12:20:04.664Z,12.57
2019-03-03T12:23:05.033Z,13.17
2019-03-03T12:25:50.689Z,12.90
2019-03-03T12:28:43.906Z,13.83
2019-03-03T12:31:47.381Z,13.57
2019-03-03T12:34:44.877Z,11.77
2019-03-03T12:37:45.607Z,12.43
2019-03-03T12:40:40.325Z,13.47
2019-03-03T12:43:28.681Z,12.00
2019-03-03T12:46:26.268Z,12.07
2019-03-03T12:49:10.711Z,10.77
2019-03-03T12:52:05.590Z,11.60
2019-03-03T12:55:00.044Z,11.33
2019-03-03T12:57:39.015Z,11.23
2019-03-03T13:00:19.833Z,11.63
2019-03-03T13:03:07.162Z,11.77
2019-03-03T13:05:58.681Z,11.47
2019-03-03T13:09:05.486Z,11.60
2019-03-03T13:11:43.612Z,11.70
2019-03-03T13:17:01.443Z,12.83
2019-03-03T13:19:42.236Z,12.00
2019-03-03T13:22:36.728Z,12.97
2019-03-03T13:25:18.896Z,13.10
2019-03-03T13:28:00.729Z,13.17
2019-03-03T13:30:42.248Z,13.13
2019-03-03T13:33:29.494Z,12.30
2019-03-03T13:36:20.070Z,12.20
2019-03-03T13:38:59.515Z,12.60
2019-03-03T13:42:00.254Z,12.60
2019-03-03T13:44:31.960Z,11.70
2019-03-03T13:47:01.406Z,12.33
2019-03-03T13:49:30.863Z,12.00
2019-03-03T13:52:00.650Z,12.97
2019-03-03T13:54:30.110Z,12.60
2019-03-03T13:56:59.715Z,12.73
2019-03-03T13:59:29.083Z,12.20
2019-03-03T14:01:58.605Z,12.03
2019-03-03T14:04:28.255Z,12.53
2019-03-03T14:06:58.048Z,13.07
2019-03-03T14:09:27.385Z,12.30
2019-03-03T14:11:56.832Z,11.90
2019-03-03T14:14:26.760Z,13.13
2019-03-03T14:16:56.308Z,12.33
2019-03-03T14:19:25.755Z,12.30
2019-03-03T14:21:55.163Z,12.00
2019-03-03T14:24:24.597Z,12.13
2019-03-03T14:26:54.142Z,12.83
2019-03-03T14:29:23.699Z,11.83
2019-03-03T14:31:53.226Z,12.77
2019-03-03T14:34:22.615Z,12.50
2019-03-03T14:36:51.962Z,13.40
2019-03-03T14:39:21.627Z,13.93
2019-03-03T14:41:50.914Z,13.67
2019-03-03T14:44:20.283Z,13.10
2019-03-03T14:46:49.633Z,13.40
2019-03-03T14:49:19.063Z,12.67
2019-03-03T14:51:48.643Z,13.27
2019-03-03T14:54:17.901Z,12.83
2019-03-03T14:56:47.325Z,14.13
2019-03-03T14:59:16.735Z,14.50
2019-03-03T15:01:46.154Z,15.97
2019-03-03T15:04:15.581Z,12.60
2019-03-03T15:06:44.969Z,11.90
2019-03-03T15:09:21.687Z,12.70
2019-03-03T15:11:51.160Z,14.07
2019-03-03T15:14:20.517Z,13.10
2019-03-03T15:16:50.035Z,13.67
2019-03-03T15:19:19.985Z,14.17
2019-03-03T15:21:49.439Z,11.97
2019-03-03T15:24:18.911Z,11.83
2019-03-03T15:26:48.325Z,12.33
2019-03-03T15:29:17.579Z,13.27
2019-03-03T15:31:46.980Z,13.10
2019-03-03T15:34:16.505Z,13.43
2019-03-03T15:36:45.963Z,15.20
2019-03-03T15:39:15.438Z,16.43
2019-03-03T15:41:44.819Z,16.70
2019-03-03T15:44:14.165Z,15.00
2019-03-03T15:46:43.787Z,14.03
2019-03-03T15:49:13.422Z,15.40
2019-03-03T15:51:42.952Z,15.10
2019-03-03T15:54:12.524Z,15.07
2019-03-03T15:56:41.982Z,16.13
2019-03-03T15:59:11.509Z,15.37
2019-03-03T16:01:41.156Z,16.03
2019-03-03T16:04:10.513Z,17.30
2019-03-03T16:06:40.871Z,17.30
2019-03-03T16:09:15.997Z,17.63
2019-03-03T16:11:45.831Z,17.50
2019-03-03T16:14:15.233Z,16.67
2019-03-03T16:16:44.757Z,15.97
2019-03-03T16:19:14.181Z,17.77
2019-03-03T16:21:43.473Z,18.13
2019-03-03T16:24:12.938Z,18.63
2019-03-03T16:26:42.339Z,18.57
2019-03-03T16:29:11.787Z,18.43
2019-03-03T16:31:41.198Z,19.43
2019-03-03T16:34:10.639Z,18.70
2019-03-03T16:36:40.055Z,18.20
2019-03-03T16:39:09.637Z,18.87
2019-03-03T16:41:40.166Z,19.37
2019-03-03T16:44:09.699Z,20.47
2019-03-03T16:46:39.116Z,21.53
2019-03-03T16:49:08.457Z,19.07
2019-03-03T16:51:37.819Z,19.43
2019-03-03T16:54:07.338Z,19.80
2019-03-03T16:56:36.731Z,19.47
2019-03-03T16:59:06.263Z,19.17
2019-03-03T17:01:35.602Z,20.27
2019-03-03T17:04:05.147Z,21.87
2019-03-03T17:06:34.582Z,21.73
2019-03-03T17:09:05.219Z,22.17
2019-03-03T17:11:34.551Z,23.10
2019-03-03T17:14:03.969Z,24.10
2019-03-03T17:16:33.408Z,22.50
2019-03-03T17:19:03.027Z,24.73
2019-03-03T17:21:32.335Z,25.13
2019-03-03T17:24:01.682Z,27.60
2019-03-03T17:26:30.981Z,32.53
2019-03-03T17:29:00.310Z,33.50
2019-03-03T17:31:29.740Z,36.53
2019-03-03T17:34:01.237Z,43.33
2019-03-03T17:36:30.712Z,37.13
2019-03-03T17:39:00.524Z,42.20
2019-03-03T17:41:30.036Z,44.73
2019-03-03T17:43:59.598Z,35.80
2019-03-03T17:46:29.062Z,34.70
2019-03-03T17:48:58.637Z,33.17
2019-03-03T17:51:28.325Z,29.83
2019-03-03T17:54:12.924Z,28.43
2019-03-03T17:56:46.861Z,25.00
2019-03-03T17:59:16.291Z,26.90
2019-03-03T18:01:45.803Z,24.60
2019-03-03T18:04:16.554Z,26.37
2019-03-03T18:06:45.935Z,26.70
2019-03-03T18:09:16.614Z,27.97
2019-03-03T18:11:49.044Z,30.17
2019-03-03T18:14:20.391Z,30.23
2019-03-03T18:16:52.838Z,29.93
2019-03-03T18:19:22.279Z,31.73
2019-03-03T18:21:51.796Z,29.80
2019-03-03T18:24:21.683Z,30.03
2019-03-03T18:26:51.141Z,30.83
2019-03-03T18:29:21.884Z,30.23
2019-03-03T18:31:51.289Z,34.97
2019-03-03T18:34:20.846Z,39.33
2019-03-03T18:36:50.281Z,34.20
2019-03-03T18:39:21.235Z,36.37
2019-03-03T18:41:50.883Z,31.73
2019-03-03T18:44:20.247Z,33.33
2019-03-03T18:46:50.436Z,46.57
2019-03-03T18:49:19.913Z,54.77
2019-03-03T18:51:49.246Z,37.80
2019-03-03T18:54:18.734Z,34.43
2019-03-03T18:56:49.070Z,32.60
2019-03-03T18:59:18.493Z,30.30
2019-03-03T19:01:48.348Z,27.00
2019-03-03T19:04:17.900Z,28.33
2019-03-03T19:06:47.348Z,29.40
2019-03-03T19:09:21.920Z,27.50
2019-03-03T19:11:51.443Z,32.77
2019-03-03T19:14:28.027Z,31.07
2019-03-03T19:16:52.097Z,31.77
2019-03-03T19:19:21.628Z,30.23
2019-03-03T19:21:51.125Z,27.93
2019-03-03T19:24:23.122Z,29.00
2019-03-03T19:26:52.743Z,28.67
2019-03-03T19:29:22.279Z,29.33
2019-03-03T19:31:51.977Z,27.83
2019-03-03T19:34:21.366Z,27.87
2019-03-03T19:36:50.817Z,28.23
2019-03-03T19:39:20.640Z,27.67
2019-03-03T19:41:50.079Z,29.53
2019-03-03T19:44:19.823Z,27.47
2019-03-03T19:46:49.304Z,27.20
2019-03-03T19:49:18.715Z,26.30
2019-03-03T19:51:48.104Z,26.60
2019-03-03T19:54:17.472Z,26.20
2019-03-03T19:56:46.771Z,27.17
2019-03-03T19:59:16.162Z,25.53
2019-03-03T20:01:45.586Z,26.10
2019-03-03T20:04:14.890Z,26.13
2019-03-03T20:06:44.214Z,27.60
2019-03-03T20:09:15.405Z,26.50
2019-03-03T20:11:47.131Z,25.97
2019-03-03T20:14:15.892Z,26.23
2019-03-03T20:16:45.397Z,24.87
2019-03-03T20:19:14.961Z,26.47
2019-03-03T20:21:44.574Z,26.03
2019-03-03T20:24:14.104Z,26.50
2019-03-03T20:26:43.575Z,24.80
2019-03-03T20:29:13.084Z,26.23
2019-03-03T20:31:42.438Z,25.13
2019-03-03T20:34:12.151Z,26.83
2019-03-03T20:36:41.711Z,26.97
2019-03-03T20:39:11.770Z,27.27
2019-03-03T20:41:41.160Z,27.13
2019-03-03T20:44:10.674Z,30.30
2019-03-03T20:46:40.198Z,27.60
2019-03-03T20:49:09.676Z,27.57
2019-03-03T20:51:39.341Z,27.83
2019-03-03T20:54:09.094Z,26.23
2019-03-03T20:56:38.948Z,27.13
2019-03-03T20:59:08.469Z,25.47
2019-03-03T21:01:38.055Z,25.13
2019-03-03T21:04:07.803Z,26.67
2019-03-03T21:06:37.224Z,24.77
2019-03-03T21:09:08.494Z,28.10
2019-03-03T21:11:37.922Z,28.67
2019-03-03T21:14:07.438Z,28.20
2019-03-03T21:16:36.932Z,35.63
2019-03-03T21:19:07.387Z,32.87
2019-03-03T21:21:37.134Z,38.63
2019-03-03T21:24:06.685Z,40.73
2019-03-03T21:26:36.144Z,43.30
2019-03-03T21:29:05.785Z,44.03
2019-03-03T21:31:35.100Z,41.70
2019-03-03T21:34:04.574Z,42.83
2019-03-03T21:36:34.007Z,39.23
2019-03-03T21:39:03.692Z,40.07
2019-03-03T21:41:34.319Z,36.83
2019-03-03T21:44:03.563Z,33.63
2019-03-03T21:46:32.960Z,29.57
2019-03-03T21:49:02.465Z,30.13
2019-03-03T21:51:41.583Z,29.77
2019-03-03T21:54:11.075Z,27.17
2019-03-03T21:56:40.623Z,27.03
2019-03-03T21:59:11.708Z,25.67
2019-03-03T22:01:41.089Z,25.37
2019-03-03T22:04:10.464Z,26.03
2019-03-03T22:06:39.744Z,24.57
2019-03-03T22:09:09.912Z,24.30
2019-03-03T22:11:39.286Z,23.73
2019-03-03T22:14:09.694Z,24.13
2019-03-03T22:16:39.111Z,23.57
2019-03-03T22:19:09.322Z,23.77
2019-03-03T22:21:38.694Z,23.53
2019-03-03T22:24:08.071Z,22.00
2019-03-03T22:26:37.462Z,22.10
2019-03-03T22:29:06.883Z,22.37
2019-03-03T22:31:36.265Z,23.67
2019-03-03T22:34:05.614Z,22.50
2019-03-03T22:36:34.919Z,22.40
2019-03-03T22:39:05.786Z,23.53
2019-03-03T22:41:35.199Z,23.47
2019-03-03T22:44:04.783Z,22.93
2019-03-03T22:46:34.060Z,21.97
2019-03-03T22:49:03.612Z,22.03
2019-03-03T22:51:32.848Z,21.60
2019-03-03T22:54:02.423Z,20.80
2019-03-03T22:56:31.838Z,20.70
2019-03-03T22:59:01.225Z,19.60
2019-03-03T23:01:35.264Z,19.97
2019-03-03T23:04:24.874Z,18.57
2019-03-03T23:07:06.496Z,19.37
2019-03-03T23:10:08.461Z,19.43
2019-03-03T23:13:07.252Z,18.53
2019-03-03T23:15:57.916Z,18.97
2019-03-03T23:18:57.555Z,18.97
2019-03-03T23:22:06.721Z,19.83
2019-03-03T23:25:01.346Z,20.27
2019-03-03T23:27:30.712Z,20.37
2019-03-03T23:29:59.938Z,20.70
2019-03-03T23:32:29.168Z,21.47
2019-03-03T23:34:58.468Z,19.53
2019-03-03T23:37:27.887Z,19.23
2019-03-03T23:39:57.401Z,20.10
2019-03-03T23:42:26.865Z,20.03
2019-03-03T23:44:56.205Z,19.77
2019-03-03T23:47:25.599Z,20.30
2019-03-03T23:49:54.991Z,20.60
2019-03-03T23:52:24.291Z,21.27
2019-03-03T23:54:53.696Z,20.33
2019-03-03T23:57:23.531Z,20.80
2019-03-03T23:59:53.123Z,19.50
